Terminal Aerodrome Forecast
Issued by NWS Denver/Boulder, CO

Home | Current Version | Previous Version | Text Only | Print | Product List | Glossary On
Versions: 1 2 3 4 5 6 7 8 9 10 11 12 13 14 15 16 17 18 19 20 21 22 23 24 25 26 27 28 29 30 31 32 33 34 35 36 37 38 39 40 41
000
FTUS45 KBOU 271126
TAFDEN
TAF
KDEN 271126Z 2712/2818 23007KT P6SM SCT200
     FM271300 VRB06KT P6SM VCFG FEW003 FEW200
     FM271700 03007KT P6SM SCT200
     FM272100 07006KT P6SM SCT080 BKN200
     FM280100 13008KT P6SM SCT080 BKN140
     FM280400 21011KT P6SM FEW080 SCT140 BKN200=

USA.gov is the U.S. government's official web portal to all federal, state and local government web resources and services.